Map

Track Data

SID SEASON NUMBER BASIN SUBBASIN NAME ISO_TIME NATURE LAT LON WMO_WIND WMO_PRES WMO_AGENCY TRACK_TYPE DIST2LAND LANDFALL IFLAG USA_AGENCY USA_ATCF_ID USA_LAT USA_LON USA_RECORD USA_STATUS USA_WIND USA_PRES USA_SSHS USA_R34_NE USA_R34_SE USA_R34_SW USA_R34_NW USA_R50_NE USA_R50_SE USA_R50_SW USA_R50_NW USA_R64_NE USA_R64_SE USA_R64_SW USA_R64_NW USA_POCI USA_ROCI USA_RMW USA_EYE TOKYO_LAT TOKYO_LON TOKYO_GRADE TOKYO_WIND TOKYO_PRES TOKYO_R50_DIR TOKYO_R50_LONG TOKYO_R50_SHORT TOKYO_R30_DIR TOKYO_R30_LONG TOKYO_R30_SHORT TOKYO_LAND CMA_LAT CMA_LON CMA_CAT CMA_WIND CMA_PRES HKO_LAT HKO_LON HKO_CAT HKO_WIND HKO_PRES NEWDELHI_LAT NEWDELHI_LON NEWDELHI_GRADE NEWDELHI_WIND NEWDELHI_PRES NEWDELHI_CI NEWDELHI_DP NEWDELHI_POCI REUNION_LAT REUNION_LON REUNION_TYPE REUNION_WIND REUNION_PRES REUNION_TNUM REUNION_CI REUNION_RMW REUNION_R34_NE REUNION_R34_SE REUNION_R34_SW REUNION_R34_NW REUNION_R50_NE REUNION_R50_SE REUNION_R50_SW REUNION_R50_NW REUNION_R64_NE REUNION_R64_SE REUNION_R64_SW REUNION_R64_NW BOM_LAT BOM_LON BOM_TYPE BOM_WIND BOM_PRES BOM_TNUM BOM_CI BOM_RMW BOM_R34_NE BOM_R34_SE BOM_R34_SW BOM_R34_NW BOM_R50_NE BOM_R50_SE BOM_R50_SW BOM_R50_NW BOM_R64_NE BOM_R64_SE BOM_R64_SW BOM_R64_NW BOM_ROCI BOM_POCI BOM_EYE BOM_POS_METHOD BOM_PRES_METHOD NADI_LAT NADI_LON NADI_CAT NADI_WIND NADI_PRES WELLINGTON_LAT WELLINGTON_LON WELLINGTON_WIND WELLINGTON_PRES DS824_LAT DS824_LON DS824_STAGE DS824_WIND DS824_PRES TD9636_LAT TD9636_LON TD9636_STAGE TD9636_WIND TD9636_PRES TD9635_LAT TD9635_LON TD9635_WIND TD9635_PRES TD9635_ROCI NEUMANN_LAT NEUMANN_LON NEUMANN_CLASS NEUMANN_WIND NEUMANN_PRES MLC_LAT MLC_LON MLC_CLASS MLC_WIND MLC_PRES USA_GUST BOM_GUST BOM_GUST_PER REUNION_GUST REUNION_GUST_PER USA_SEAHGT USA_SEARAD_NE USA_SEARAD_SE USA_SEARAD_SW USA_SEARAD_NW STORM_SPEED STORM_DIR
1976237N13264 1976 99 EP MM IVA 1976-08-24 00:00:00 TS 13.0000 -96.0000 25 hurdat_epa main 298 268 O________OO___ hurdat_epa EP091976 13.0000 -96.0000 TD 25 -1 13.0000 -96.0000 TC 25 13.0000 -96.0000 1 25 16 285
1976237N13264 1976 99 EP MM IVA 1976-08-24 03:00:00 TS 13.2098 -96.8073 main 269 261 P________PP___ EP091976 13.2281 -96.8246 TD 25 -1 13.2281 -96.8246 TC 25 13.1363 -96.7381 1 25 16 284
1976237N13264 1976 99 EP MM IVA 1976-08-24 06:00:00 TS 13.3714 -97.5723 25 hurdat_epa main 268 268 O________OP___ hurdat_epa EP091976 13.4000 -97.6000 TD 25 -1 13.4000 -97.6000 TC 25 13.2572 -97.4614 1 25 14 280
1976237N13264 1976 99 EP MM IVA 1976-08-24 09:00:00 TS 13.4537 -98.2609 main 284 284 P________PP___ EP091976 13.4798 -98.2877 TD 25 -1 13.4798 -98.2877 TC 25 13.3494 -98.1540 1 25 13 275
1976237N13264 1976 99 EP MM IVA 1976-08-24 12:00:00 TS 13.4800 -98.8800 25 hurdat_epa main 303 303 O________OO___ hurdat_epa EP091976 13.5000 -98.9000 TD 25 -1 13.5000 -98.9000 TC 25 13.4000 -98.8000 1 25 12 272
1976237N13264 1976 99 EP MM IVA 1976-08-24 15:00:00 TS 13.4922 -99.4559 main 328 328 P________PP___ EP091976 13.5148 -99.4725 TD 27 -1 13.5148 -99.4725 TC 27 13.4019 -99.3896 1 25 11 270
1976237N13264 1976 99 EP MM IVA 1976-08-24 18:00:00 TS 13.4743 -99.9876 30 hurdat_epa main 347 347 O________OP___ hurdat_epa EP091976 13.5000 -100.000 TD 30 -1 13.5000 -100.000 TC 30 13.3713 -99.9382 1 25 10 266
1976237N13264 1976 99 EP MM IVA 1976-08-24 21:00:00 TS 13.4258 -100.488 main 379 379 P________PP___ EP091976 13.4498 -100.493 TD 27 -1 13.4498 -100.493 TC 27 13.3301 -100.468 1 25 10 265
1976237N13264 1976 99 EP MM IVA 1976-08-25 00:00:00 TS 13.3800 -101.000 25 hurdat_epa main 394 394 O________OO___ hurdat_epa EP091976 13.4000 -101.000 TD 25 -1 13.4000 -101.000 TC 25 13.3000 -101.000 1 25 11 267
1976237N13264 1976 99 EP MM IVA 1976-08-25 03:00:00 TS 13.3754 -101.594 main 422 422 P________PP___ EP091976 13.3925 -101.592 TD 25 -1 13.3925 -101.592 TC 25 13.3067 -101.600 1 25 12 270
1976237N13264 1976 99 EP MM IVA 1976-08-25 06:00:00 TS 13.3856 -102.200 25 hurdat_epa main 451 451 O________OP___ hurdat_epa EP091976 13.4000 -102.200 TD 25 -1 13.4000 -102.200 TC 25 13.3278 -102.202 1 25 12 271
1976237N13264 1976 99 EP MM IVA 1976-08-25 09:00:00 TS 13.3860 -102.780 main 473 473 P________PP___ EP091976 13.3925 -102.780 TD 25 -1 13.3925 -102.780 TC 25 13.3599 -102.778 1 25 11 271
1976237N13264 1976 99 EP MM IVA 1976-08-25 12:00:00 TS 13.4000 -103.300 25 hurdat_epa main 496 496 O________OO___ hurdat_epa EP091976 13.4000 -103.300 TD 25 -1 13.4000 -103.300 TC 25 13.4000 -103.300 1 25 9 273
1976237N13264 1976 99 EP MM IVA 1976-08-25 15:00:00 TS 13.4265 -103.725 main 518 518 P________PP___ EP091976 13.4348 -103.730 TD 30 -1 13.4348 -103.730 TC 30 13.3931 -103.705 1 28 8 276
1976237N13264 1976 99 EP MM IVA 1976-08-25 18:00:00 TS 13.4802 -104.092 35 hurdat_epa main 528 528 O________OP___ hurdat_epa EP091976 13.5000 -104.100 TS 35 0 13.5000 -104.100 TC 35 13.4011 -104.059 1 32 7 280
1976237N13264 1976 99 EP MM IVA 1976-08-25 21:00:00 TS 13.5416 -104.424 main 539 531 P________PP___ EP091976 13.5623 -104.428 TS 37 0 13.5623 -104.428 TC 37 13.4587 -104.408 1 36 7 286
1976237N13264 1976 99 EP MM IVA 1976-08-26 00:00:00 TS 13.6800 -104.800 40 hurdat_epa main 531 524 O________OO___ hurdat_epa EP091976 13.7000 -104.800 TS 40 0 13.7000 -104.800 TC 40 13.6000 -104.800 2 40 10 295
1976237N13264 1976 99 EP MM IVA 1976-08-26 03:00:00 TS 13.9478 -105.324 main 528 510 P________PP___ EP091976 13.9626 -105.320 TS 42 0 13.9626 -105.320 TC 42 13.8888 -105.339 2 43 12 300
1976237N13264 1976 99 EP MM IVA 1976-08-26 06:00:00 TS 14.2912 -105.904 45 hurdat_epa main 515 510 O________OP___ hurdat_epa EP091976 14.3000 -105.900 TS 45 0 14.3000 -105.900 TC 45 14.2560 -105.921 2 47 13 302
1976237N13264 1976 99 EP MM IVA 1976-08-26 09:00:00 TS 14.6611 -106.488 main 514 512 P________PP___ EP091976 14.6651 -106.487 TS 50 0 14.6651 -106.487 TC 50 14.6451 -106.492 2 51 13 304
1976237N13264 1976 99 EP MM IVA 1976-08-26 12:00:00 TS 15.0000 -107.000 55 hurdat_epa main 524 515 O________OO___ hurdat_epa EP091976 15.0000 -107.000 TS 55 0 15.0000 -107.000 TC 55 15.0000 -107.000 2 55 10 304
1976237N13264 1976 99 EP MM IVA 1976-08-26 15:00:00 TS 15.2246 -107.342 main 520 512 P________PP___ EP091976 15.2223 -107.338 TS 60 0 15.2223 -107.338 TC 60 15.2341 -107.361 2 57 7 305
1976237N13264 1976 99 EP MM IVA 1976-08-26 18:00:00 TS 15.4058 -107.611 65 hurdat_epa main 518 513 O________OP___ hurdat_epa EP091976 15.4000 -107.600 HU 65 1 15.4000 -107.600 TC 65 15.4288 -107.654 2 60 6 305
1976237N13264 1976 99 EP MM IVA 1976-08-26 21:00:00 TS 15.5898 -107.892 main 520 516 P________PP___ EP091976 15.5849 -107.885 HU 65 1 15.5849 -107.885 TC 65 15.6092 -107.920 2 62 7 305
1976237N13264 1976 99 EP MM IVA 1976-08-27 00:00:00 TS 15.8000 -108.200 65 hurdat_epa main 524 523 O________OO___ hurdat_epa EP091976 15.8000 -108.200 HU 65 1 15.8000 -108.200 TC 65 15.8000 -108.200 4 65 8 307
1976237N13264 1976 99 EP MM IVA 1976-08-27 03:00:00 TS 16.0819 -108.576 main 530 530 P________PP___ EP091976 16.0925 -108.585 HU 70 1 16.0925 -108.585 TC 70 16.0395 -108.541 4 71 10 308
1976237N13264 1976 99 EP MM IVA 1976-08-27 06:00:00 TS 16.3784 -108.981 75 hurdat_epa main 537 537 O________OP___ hurdat_epa EP091976 16.4000 -109.000 HU 75 1 16.4000 -109.000 TC 75 16.2922 -108.905 4 77 10 306
1976237N13264 1976 99 EP MM IVA 1976-08-27 09:00:00 TS 16.6357 -109.378 main 554 547 P________PP___ EP091976 16.6574 -109.400 HU 82 1 16.6574 -109.400 TC 82 16.5488 -109.291 4 83 9 303
1976237N13264 1976 99 EP MM IVA 1976-08-27 12:00:00 TS 16.8800 -109.780 90 hurdat_epa main 569 569 O________OO___ hurdat_epa EP091976 16.9000 -109.800 HU 90 2 16.9000 -109.800 TC 90 16.8000 -109.700 4 90 9 303
1976237N13264 1976 99 EP MM IVA 1976-08-27 15:00:00 TS 17.1331 -110.178 main 592 586 P________PP___ EP091976 17.1574 -110.193 HU 100 3 17.1574 -110.193 TC 100 17.0360 -110.121 4 95 9 302
1976237N13264 1976 99 EP MM IVA 1976-08-27 18:00:00 TS 17.3729 -110.593 110 hurdat_epa main 610 601 O________OP___ hurdat_epa EP091976 17.4000 -110.600 HU 110 3 17.4000 -110.600 TC 110 17.2647 -110.563 4 100 9 299
1976237N13264 1976 99 EP MM IVA 1976-08-27 21:00:00 TS 17.5831 -111.039 main 601 588 P________PP___ EP091976 17.6074 -111.043 HU 110 3 17.6074 -111.043 TC 110 17.4860 -111.024 4 105 10 295
1976237N13264 1976 99 EP MM IVA 1976-08-28 00:00:00 TS 17.7800 -111.500 110 hurdat_epa main 591 582 O________OO___ hurdat_epa EP091976 17.8000 -111.500 HU 110 3 17.8000 -111.500 TC 110 17.7000 -111.500 4 110 10 295
1976237N13264 1976 99 EP MM IVA 1976-08-28 03:00:00 TS 17.9897 -111.954 main 586 577 P________PP___ EP091976 18.0073 -111.943 HU 112 3 18.0073 -111.943 TC 112 17.9194 -111.998 4 111 10 295
1976237N13264 1976 99 EP MM IVA 1976-08-28 06:00:00 TS 18.1860 -112.421 115 hurdat_epa main 581 581 O________OP___ hurdat_epa EP091976 18.2000 -112.400 HU 115 4 18.2000 -112.400 TC 115 18.1300 -112.507 4 112 10 291
1976237N13264 1976 99 EP MM IVA 1976-08-28 09:00:00 TS 18.3512 -112.929 main 586 586 P________PP___ EP091976 18.3575 -112.908 HU 115 4 18.3575 -112.908 TC 115 18.3256 -113.013 4 113 10 288
1976237N13264 1976 99 EP MM IVA 1976-08-28 12:00:00 TS 18.5000 -113.420 115 hurdat_epa main 605 605 O________OO___ hurdat_epa EP091976 18.5000 -113.400 HU 115 4 18.5000 -113.400 TC 115 18.5000 -113.500 4 115 9 289
1976237N13264 1976 99 EP MM IVA 1976-08-28 15:00:00 TS 18.6481 -113.833 main 622 620 P________PP___ EP091976 18.6498 -113.815 HU 112 3 18.6498 -113.815 TC 112 18.6412 -113.907 4 112 8 291
1976237N13264 1976 99 EP MM IVA 1976-08-28 18:00:00 TS 18.7926 -114.220 110 hurdat_epa main 632 632 O________OP___ hurdat_epa EP091976 18.8000 -114.200 HU 110 3 18.8000 -114.200 TC 110 18.7631 -114.299 4 110 8 292
1976237N13264 1976 99 EP MM IVA 1976-08-28 21:00:00 TS 18.9353 -114.587 main 654 646 P________PP___ EP091976 18.9495 -114.555 HU 107 3 18.9495 -114.555 TC 107 18.8785 -114.716 4 107 8 290
1976237N13264 1976 99 EP MM IVA 1976-08-29 00:00:00 TS 19.0800 -115.040 105 hurdat_epa main 670 670 O________OO___ hurdat_epa EP091976 19.1000 -115.000 HU 105 3 19.1000 -115.000 TC 105 19.0000 -115.200 4 105 11 286
1976237N13264 1976 99 EP MM IVA 1976-08-29 03:00:00 TS 19.2365 -115.687 main 716 712 P________PP___ EP091976 19.2576 -115.647 HU 97 3 19.2576 -115.647 TC 97 19.1523 -115.847 4 106 13 283
1976237N13264 1976 99 EP MM IVA 1976-08-29 06:00:00 TS 19.3819 -116.431 90 hurdat_epa main 739 739 O________OP___ hurdat_epa EP091976 19.4000 -116.400 HU 90 2 19.4000 -116.400 TC 90 19.3095 -116.557 4 107 15 281
1976237N13264 1976 99 EP MM IVA 1976-08-29 09:00:00 TS 19.5046 -117.209 main 783 783 P________PP___ EP091976 19.5153 -117.195 HU 100 3 19.5153 -117.195 TC 100 19.4617 -117.263 4 108 14 279
1976237N13264 1976 99 EP MM IVA 1976-08-29 12:00:00 TS 19.6000 -117.900 110 hurdat_epa main 825 825 O________OO___ hurdat_epa EP091976 19.6000 -117.900 HU 110 3 19.6000 -117.900 TC 110 19.6000 -117.900 4 110 11 279
1976237N13264 1976 99 EP MM IVA 1976-08-29 15:00:00 TS 19.6656 -118.351 main 855 855 P________PP___ EP091976 19.6570 -118.353 HU 110 3 19.6570 -118.353 TC 110 19.7001 -118.344 4 105 8 279
1976237N13264 1976 99 EP MM IVA 1976-08-29 18:00:00 TS 19.7179 -118.703 110 hurdat_epa main 878 878 O________OP___ hurdat_epa EP091976 19.7000 -118.700 HU 110 3 19.7000 -118.700 TC 110 19.7897 -118.717 4 100 7 277
1976237N13264 1976 99 EP MM IVA 1976-08-29 21:00:00 TS 19.7526 -119.067 main 903 903 P________PP___ EP091976 19.7196 -119.063 HU 100 3 19.7196 -119.063 TC 100 19.8846 -119.081 4 95 8 279
1976237N13264 1976 99 EP MM IVA 1976-08-30 00:00:00 TS 19.8400 -119.500 90 hurdat_epa main 935 935 O________OO___ hurdat_epa EP091976 19.8000 -119.500 HU 90 2 19.8000 -119.500 TC 90 20.0000 -119.500 4 90 10 287
1976237N13264 1976 99 EP MM IVA 1976-08-30 03:00:00 TS 20.0487 -120.117 main 972 972 P________PP___ EP091976 20.0202 -120.120 HU 80 1 20.0202 -120.120 TC 80 20.1628 -120.104 4 82 13 291
1976237N13264 1976 99 EP MM IVA 1976-08-30 06:00:00 TS 20.3089 -120.793 70 hurdat_epa main 1008 1006 O________OP___ hurdat_epa EP091976 20.3000 -120.800 HU 70 1 20.3000 -120.800 TC 70 20.3444 -120.764 4 75 13 292
1976237N13264 1976 99 EP MM IVA 1976-08-30 09:00:00 TS 20.5578 -121.445 main 1024 1024 P________PP___ EP091976 20.5651 -121.452 HU 65 1 20.5651 -121.452 TC 65 20.5285 -121.417 4 67 12 293
1976237N13264 1976 99 EP MM IVA 1976-08-30 12:00:00 TS 20.7800 -122.000 60 hurdat_epa main 1047 1047 O________OO___ hurdat_epa EP091976 20.8000 -122.000 TS 60 0 20.8000 -122.000 TC 60 20.7000 -122.000 2 60 9 294
1976237N13264 1976 99 EP MM IVA 1976-08-30 15:00:00 TS 20.9328 -122.361 main 1066 1058 P________PP___ EP091976 20.9646 -122.345 TS 57 0 20.9646 -122.345 TC 57 20.8055 -122.422 2 57 7 295
1976237N13264 1976 99 EP MM IVA 1976-08-30 18:00:00 TS 21.0606 -122.634 55 hurdat_epa main 1065 1065 O________OP___ hurdat_epa EP091976 21.1000 -122.600 TS 55 0 21.1000 -122.600 TC 55 20.9032 -122.769 2 55 6 297
1976237N13264 1976 99 EP MM IVA 1976-08-30 21:00:00 TS 21.1927 -122.919 main 1079 1079 P________PP___ EP091976 21.2348 -122.878 TS 52 0 21.2348 -122.878 TC 52 21.0245 -123.082 2 52 6 298
1976237N13264 1976 99 EP MM IVA 1976-08-31 00:00:00 TS 21.3600 -123.240 50 hurdat_epa main 1086 1086 O________OO___ hurdat_epa EP091976 21.4000 -123.200 TS 50 0 21.4000 -123.200 TC 50 21.2000 -123.400 2 50 8 301
1976237N13264 1976 99 EP MM IVA 1976-08-31 03:00:00 TS 21.6048 -123.661 main 1111 1111 P________PP___ EP091976 21.6350 -123.627 TS 45 0 21.6350 -123.627 TC 45 21.4838 -123.793 2 46 10 303
1976237N13264 1976 99 EP MM IVA 1976-08-31 06:00:00 TS 21.8840 -124.120 40 hurdat_epa main 1122 1122 O________OP___ hurdat_epa EP091976 21.9000 -124.100 TS 40 0 21.9000 -124.100 TC 40 21.8201 -124.199 2 42 10 303
1976237N13264 1976 99 EP MM IVA 1976-08-31 09:00:00 TS 22.1542 -124.573 main 1145 1145 P________PP___ EP091976 22.1500 -124.565 TS 37 0 22.1500 -124.565 TC 37 22.1713 -124.606 2 38 10 303
1976237N13264 1976 99 EP MM IVA 1976-08-31 12:00:00 TS 22.4200 -125.000 35 hurdat_epa main 1167 1167 O________OO___ hurdat_epa EP091976 22.4000 -125.000 TS 35 0 22.4000 -125.000 TC 35 22.5000 -125.000 2 35 9 305
1976237N13264 1976 99 EP MM IVA 1976-08-31 15:00:00 TS 22.6750 -125.374 main 1184 1184 P________PP___ EP091976 22.6574 -125.373 TS 35 0 22.6574 -125.373 TC 35 22.7454 -125.377 2 33 8 307
1976237N13264 1976 99 EP MM IVA 1976-08-31 18:00:00 TS 22.9129 -125.708 35 hurdat_epa main 1200 1200 O________OP___ hurdat_epa EP091976 22.9000 -125.700 TS 35 0 22.9000 -125.700 TC 35 22.9647 -125.739 2 32 7 306
1976237N13264 1976 99 EP MM IVA 1976-08-31 21:00:00 TS 23.1093 -126.022 main 1217 1217 P________PP___ EP091976 23.0924 -126.008 TS 32 -1 23.0924 -126.008 TC 32 23.1767 -126.080 2 31 7 306
1976237N13264 1976 99 EP MM IVA 1976-09-01 00:00:00 TS 23.3200 -126.320 30 hurdat_epa main 1234 1234 O________OO___ hurdat_epa EP091976 23.3000 -126.300 TD 30 -1 23.3000 -126.300 TC 30 23.4000 -126.400 1 30 7 312
1976237N13264 1976 99 EP MM IVA 1976-09-01 03:00:00 TS 23.6057 -126.620 main 1248 1248 P________PP___ EP091976 23.5849 -126.600 TD 27 -1 23.5849 -126.600 TC 27 23.6887 -126.701 1 28 8 318
1976237N13264 1976 99 EP MM IVA 1976-09-01 06:00:00 TS 23.9174 -126.916 25 hurdat_epa main 1263 1258 O________OP___ hurdat_epa EP091976 23.9000 -126.900 TD 25 -1 23.9000 -126.900 TC 25 23.9871 -126.980 1 27 8 319
1976237N13264 1976 99 EP MM IVA 1976-09-01 09:00:00 TS 24.2314 -127.215 main 1279 1275 P________PP___ EP091976 24.2225 -127.207 TD 25 -1 24.2225 -127.207 TC 25 24.2669 -127.244 1 26 8 318
1976237N13264 1976 99 EP MM IVA 1976-09-01 12:00:00 TS 24.5000 -127.500 25 hurdat_epa main 1294 1285 O________OO___ hurdat_epa EP091976 24.5000 -127.500 TD 25 -1 24.5000 -127.500 TC 25 24.5000 -127.500 1 25 7 313
1976237N13264 1976 99 EP MM IVA 1976-09-01 15:00:00 TS 24.6831 -127.757 main 1291 1286 P________PP___ EP091976 24.6874 -127.758 TD 25 -1 24.6874 -127.758 TC 25 24.6659 -127.752 1 25 5 303
1976237N13264 1976 99 EP MM IVA 1976-09-01 18:00:00 ET 24.7951 -128.001 25 hurdat_epa main 1292 1292 O________OP___ hurdat_epa EP091976 24.8000 -128.000 ET 25 -4 24.8000 -128.000 25 24.7754 -128.003 1 25 5 292
1976237N13264 1976 99 EP MM IVA 1976-09-01 21:00:00 ET 24.8595 -128.248 main 1293 1293 P________PP___ EP091976 24.8626 -128.247 ET 25 -4 24.8626 -128.247 25 24.8472 -128.252 1 25 5 283
1976237N13264 1976 99 EP MM IVA 1976-09-02 00:00:00 ET 24.9000 -128.500 25 hurdat_epa main 1310 O________OO___ hurdat_epa EP091976 24.9000 -128.500 ET 25 -4 24.9000 -128.500 25 24.9000 -128.500 6 25 5 280

About IBTrACS Database

This database is a web-friendly format of International Best Track Archive for Climate Stewardship (IBTrACS), a global best track data archive curated by NOAA dating back to 1842.

Updated: 2021-12-08